createdAt,value
2022-10-26T00:00:13.885Z,9.90
2022-10-26T00:03:17.466Z,8.30
2022-10-26T00:06:05.781Z,8.20
2022-10-26T00:08:49.130Z,8.50
2022-10-26T00:11:31.849Z,8.90
2022-10-26T00:16:57.568Z,8.70
2022-10-26T00:19:40.324Z,10.10
2022-10-26T00:22:23.691Z,8.70
2022-10-26T00:25:07.440Z,9.60
2022-10-26T00:27:51.526Z,9.90
2022-10-26T00:30:34.398Z,9.50
2022-10-26T00:33:17.511Z,9.50
2022-10-26T00:36:00.530Z,10.60
2022-10-26T00:38:46.219Z,10.10
2022-10-26T00:41:31.770Z,10.40
2022-10-26T00:44:48.877Z,9.40
2022-10-26T00:47:42.123Z,9.70
2022-10-26T00:50:29.661Z,9.70
2022-10-26T00:53:12.986Z,9.70
2022-10-26T00:55:56.717Z,10.70
2022-10-26T00:58:40.545Z,9.90
2022-10-26T01:01:23.543Z,10.70
2022-10-26T01:04:06.867Z,10.90
2022-10-26T01:06:50.109Z,9.70
2022-10-26T01:09:33.331Z,11.70
2022-10-26T01:12:16.041Z,10.10
2022-10-26T01:17:58.131Z,9.10
2022-10-26T01:21:14.424Z,9.70
2022-10-26T01:24:35.196Z,9.80
2022-10-26T01:27:17.922Z,8.60
2022-10-26T01:30:34.607Z,8.40
2022-10-26T01:33:41.248Z,9.60
2022-10-26T01:36:41.462Z,9.40
2022-10-26T01:39:38.498Z,10.00
2022-10-26T01:42:23.578Z,10.80
2022-10-26T01:45:09.903Z,10.20
2022-10-26T01:47:54.826Z,12.90
2022-10-26T01:50:40.088Z,12.20
2022-10-26T01:53:22.888Z,12.90
2022-10-26T01:56:10.413Z,12.40
2022-10-26T01:59:06.241Z,12.40
2022-10-26T02:01:52.221Z,13.50
2022-10-26T02:04:55.423Z,13.70
2022-10-26T02:08:06.495Z,13.60
2022-10-26T02:11:14.125Z,14.50
2022-10-26T02:16:58.550Z,15.00
2022-10-26T02:19:54.931Z,15.40
2022-10-26T02:22:49.701Z,15.60
2022-10-26T02:25:35.964Z,17.10
2022-10-26T02:28:25.635Z,17.80
2022-10-26T02:31:11.115Z,20.00
2022-10-26T02:33:56.596Z,20.80
2022-10-26T02:36:43.843Z,19.00
2022-10-26T02:39:30.472Z,19.90
2022-10-26T02:42:15.579Z,20.20
2022-10-26T02:45:04.517Z,19.40
2022-10-26T02:47:47.721Z,21.00
2022-10-26T02:50:38.661Z,21.10
2022-10-26T02:53:42.947Z,19.90
2022-10-26T02:56:33.845Z,19.60
2022-10-26T02:59:19.728Z,19.50
2022-10-26T03:02:04.721Z,18.50
2022-10-26T03:04:50.478Z,18.40
2022-10-26T03:07:33.150Z,18.70
2022-10-26T03:12:58.497Z,17.00
2022-10-26T03:18:24.020Z,16.70
2022-10-26T03:21:06.730Z,17.70
2022-10-26T03:26:33.379Z,15.90
2022-10-26T03:29:16.046Z,14.80
2022-10-26T03:34:43.658Z,15.50
2022-10-26T03:37:26.575Z,16.50
2022-10-26T03:40:10.308Z,16.30
2022-10-26T03:42:53.312Z,15.60
2022-10-26T03:45:36.239Z,15.70
2022-10-26T03:48:19.461Z,15.80
2022-10-26T03:51:03.292Z,14.70
2022-10-26T03:53:46.071Z,14.80
2022-10-26T03:56:28.760Z,14.90
2022-10-26T03:59:11.496Z,15.30
2022-10-26T04:04:39.685Z,14.30
2022-10-26T04:07:22.516Z,15.10
2022-10-26T04:10:06.429Z,15.10
2022-10-26T04:12:49.197Z,16.20
2022-10-26T04:18:14.620Z,14.50
2022-10-26T04:23:43.393Z,15.30
2022-10-26T04:26:26.185Z,15.60
2022-10-26T04:29:09.531Z,17.10
2022-10-26T04:31:52.257Z,16.70
2022-10-26T04:37:17.661Z,14.60
2022-10-26T04:42:44.977Z,15.40
2022-10-26T04:45:31.176Z,16.10
2022-10-26T04:48:14.260Z,16.90
2022-10-26T04:51:00.934Z,16.20
2022-10-26T04:53:43.752Z,16.70
2022-10-26T04:56:28.466Z,17.30
2022-10-26T04:59:11.202Z,16.10
2022-10-26T05:01:56.324Z,14.80
2022-10-26T05:04:39.174Z,15.70
2022-10-26T05:07:22.209Z,15.20
2022-10-26T05:10:05.457Z,13.80
2022-10-26T05:12:53.279Z,14.80
2022-10-26T05:15:36.073Z,14.00
2022-10-26T05:18:18.910Z,14.50
2022-10-26T05:21:01.699Z,15.00
2022-10-26T05:23:44.628Z,13.90
2022-10-26T05:26:27.426Z,14.70
2022-10-26T05:29:10.239Z,14.80
2022-10-26T05:31:53.004Z,13.50
2022-10-26T05:34:38.288Z,13.80
2022-10-26T05:37:24.814Z,13.30
2022-10-26T05:40:08.247Z,14.10
2022-10-26T05:42:51.597Z,12.60
2022-10-26T05:45:34.997Z,13.90
2022-10-26T05:48:18.008Z,13.00
2022-10-26T05:51:01.473Z,12.90
2022-10-26T05:53:44.253Z,13.50
2022-10-26T05:56:36.433Z,14.40
2022-10-26T05:59:19.520Z,12.90
2022-10-26T06:02:26.706Z,13.40
2022-10-26T06:05:11.576Z,12.90
2022-10-26T06:07:54.639Z,13.10
2022-10-26T06:10:39.254Z,13.40
2022-10-26T06:13:22.743Z,12.50
2022-10-26T06:16:34.012Z,16.30
2022-10-26T06:19:35.627Z,16.70
2022-10-26T06:22:37.352Z,14.30
2022-10-26T06:25:48.746Z,11.40
2022-10-26T06:28:37.378Z,11.50
2022-10-26T06:31:20.319Z,11.90
2022-10-26T06:34:04.644Z,11.70
2022-10-26T06:36:49.779Z,11.10
2022-10-26T06:39:39.694Z,12.20
2022-10-26T06:42:22.915Z,13.50
2022-10-26T06:45:06.632Z,13.80
2022-10-26T06:48:11.350Z,13.80
2022-10-26T06:50:55.471Z,14.40
2022-10-26T06:53:52.958Z,14.40
2022-10-26T06:56:36.331Z,14.30
2022-10-26T06:59:36.982Z,15.50
2022-10-26T07:02:21.113Z,15.30
2022-10-26T07:05:06.437Z,15.50
2022-10-26T07:07:49.573Z,15.00
2022-10-26T07:10:35.303Z,15.40
2022-10-26T07:13:18.485Z,14.30
2022-10-26T07:16:01.227Z,15.90
2022-10-26T07:21:26.518Z,14.70
2022-10-26T07:26:54.772Z,15.10
2022-10-26T07:29:37.530Z,17.00
2022-10-26T07:32:20.384Z,16.40
2022-10-26T07:35:03.271Z,17.50
2022-10-26T07:37:46.085Z,16.80
2022-10-26T07:40:29.209Z,17.70
2022-10-26T07:43:11.924Z,17.50
2022-10-26T07:48:37.655Z,18.00
2022-10-26T07:51:20.759Z,17.00
2022-10-26T07:54:03.921Z,16.70
2022-10-26T07:56:49.657Z,17.70
2022-10-26T07:59:32.472Z,17.30
2022-10-26T08:02:15.286Z,18.50
2022-10-26T08:04:58.146Z,18.10
2022-10-26T08:07:42.977Z,18.30
2022-10-26T08:10:26.102Z,18.60
2022-10-26T08:13:08.847Z,20.90
2022-10-26T08:15:58.386Z,19.70
2022-10-26T08:18:41.211Z,19.90
2022-10-26T08:24:19.293Z,19.40
2022-10-26T08:27:02.256Z,18.80
2022-10-26T08:29:45.084Z,19.10
2022-10-26T08:32:28.018Z,21.60
2022-10-26T08:35:11.445Z,20.20
2022-10-26T08:37:54.461Z,21.40
2022-10-26T08:40:41.350Z,19.50
2022-10-26T08:43:34.437Z,20.00
2022-10-26T08:46:25.603Z,19.60
2022-10-26T08:49:22.787Z,19.80
2022-10-26T08:52:09.567Z,20.80
2022-10-26T08:54:56.070Z,20.20
2022-10-26T08:57:41.460Z,19.50
2022-10-26T09:00:26.404Z,21.90
2022-10-26T09:03:15.360Z,21.10
2022-10-26T09:06:24.373Z,21.90
2022-10-26T09:09:16.730Z,22.00
2022-10-26T09:12:31.015Z,22.50
2022-10-26T09:15:33.168Z,21.70
2022-10-26T09:18:24.966Z,22.60
2022-10-26T09:21:55.283Z,22.30
2022-10-26T09:24:43.519Z,23.40
2022-10-26T09:27:45.061Z,23.90
2022-10-26T09:30:28.585Z,22.30
2022-10-26T09:33:16.927Z,21.60
2022-10-26T09:36:03.049Z,20.90
2022-10-26T09:38:57.080Z,22.10
2022-10-26T09:41:47.804Z,23.50
2022-10-26T09:44:43.890Z,23.20
2022-10-26T09:47:45.164Z,23.90
2022-10-26T09:50:35.118Z,27.60
2022-10-26T09:53:18.525Z,24.60
2022-10-26T09:56:05.871Z,25.10
2022-10-26T09:58:51.026Z,23.80
2022-10-26T10:01:38.453Z,23.70
2022-10-26T10:04:26.199Z,23.30
2022-10-26T10:07:08.875Z,22.40
2022-10-26T10:10:15.924Z,25.00
2022-10-26T10:12:58.761Z,24.50
2022-10-26T10:15:51.683Z,24.50
2022-10-26T10:18:36.169Z,24.60
2022-10-26T10:21:19.150Z,23.10
2022-10-26T10:24:01.962Z,23.60
2022-10-26T10:27:02.159Z,25.50
2022-10-26T10:29:53.658Z,23.50
2022-10-26T10:32:39.147Z,24.50
2022-10-26T10:35:29.852Z,26.80
2022-10-26T10:38:18.394Z,25.50
2022-10-26T10:41:03.992Z,26.90
2022-10-26T10:43:49.889Z,24.40
2022-10-26T10:46:33.275Z,23.90
2022-10-26T10:49:24.931Z,23.70
2022-10-26T10:52:22.543Z,23.10
2022-10-26T10:55:14.564Z,23.80
2022-10-26T10:58:19.478Z,23.60
2022-10-26T11:01:02.803Z,21.80
2022-10-26T11:04:06.879Z,22.40
2022-10-26T11:06:51.797Z,22.10
2022-10-26T11:09:37.846Z,19.90
2022-10-26T11:12:33.193Z,20.70
2022-10-26T11:15:23.882Z,19.70
2022-10-26T11:18:15.587Z,21.00
2022-10-26T11:21:31.538Z,19.20
2022-10-26T11:24:36.885Z,19.30
2022-10-26T11:28:00.252Z,20.20
2022-10-26T11:30:53.250Z,20.50
2022-10-26T11:33:43.360Z,21.00
2022-10-26T11:36:30.423Z,20.50
2022-10-26T11:39:34.722Z,20.40
2022-10-26T11:42:35.112Z,20.40
2022-10-26T11:45:20.823Z,20.70
2022-10-26T11:48:16.829Z,21.90
2022-10-26T11:51:00.362Z,22.40
2022-10-26T11:53:47.397Z,21.10
2022-10-26T11:56:45.426Z,21.00
2022-10-26T11:59:35.809Z,21.30
2022-10-26T12:02:22.483Z,21.70
2022-10-26T12:05:05.273Z,21.10
2022-10-26T12:07:53.438Z,21.60
2022-10-26T12:10:39.944Z,20.70
2022-10-26T12:13:38.966Z,21.00
2022-10-26T12:16:42.893Z,20.20
2022-10-26T12:22:17.678Z,21.60
2022-10-26T12:25:15.757Z,21.30
2022-10-26T12:28:00.587Z,18.50
2022-10-26T12:30:43.398Z,19.20
2022-10-26T12:33:31.023Z,17.80
2022-10-26T12:36:51.901Z,17.00
2022-10-26T12:39:35.747Z,18.90
2022-10-26T12:42:18.489Z,18.90
2022-10-26T12:45:08.555Z,16.70
2022-10-26T12:47:52.458Z,15.60
2022-10-26T12:50:35.379Z,15.80
2022-10-26T12:53:21.960Z,16.40
2022-10-26T12:56:14.922Z,15.00
2022-10-26T12:59:42.838Z,14.70
2022-10-26T13:02:49.995Z,13.70
2022-10-26T13:05:51.066Z,12.90
2022-10-26T13:08:47.027Z,12.20
2022-10-26T13:11:32.723Z,10.00
2022-10-26T13:14:41.277Z,10.80
2022-10-26T13:17:27.038Z,11.10
2022-10-26T13:20:18.440Z,10.20
2022-10-26T13:23:02.946Z,9.40
2022-10-26T13:26:02.588Z,8.80
2022-10-26T13:28:47.450Z,9.80
2022-10-26T13:31:32.917Z,9.80
2022-10-26T13:34:20.843Z,9.60
2022-10-26T13:37:15.738Z,9.10
2022-10-26T13:39:59.881Z,9.40
2022-10-26T13:42:56.713Z,9.90
2022-10-26T13:45:56.513Z,10.00
2022-10-26T13:48:41.509Z,9.60
2022-10-26T13:51:31.965Z,9.90
2022-10-26T13:54:39.336Z,10.00
2022-10-26T13:57:40.772Z,8.70
2022-10-26T14:00:24.137Z,8.60
2022-10-26T14:03:14.869Z,9.10
2022-10-26T14:05:57.910Z,9.00
2022-10-26T14:08:42.477Z,8.30
2022-10-26T14:11:33.725Z,9.10
2022-10-26T14:14:26.831Z,8.20
2022-10-26T14:17:20.197Z,8.00
2022-10-26T14:20:04.854Z,7.50
2022-10-26T14:22:47.547Z,8.10
2022-10-26T14:25:42.274Z,7.60
2022-10-26T14:28:38.643Z,7.60
2022-10-26T14:31:39.771Z,7.20
2022-10-26T14:34:23.105Z,7.50
2022-10-26T14:37:23.024Z,7.60
2022-10-26T14:40:08.007Z,8.40
2022-10-26T14:42:57.013Z,6.50
2022-10-26T14:45:48.989Z,7.20
2022-10-26T14:48:34.408Z,8.30
2022-10-26T14:51:19.383Z,7.00
2022-10-26T14:54:03.613Z,7.50
2022-10-26T14:56:46.743Z,7.90
2022-10-26T14:59:32.492Z,7.30
2022-10-26T15:02:22.700Z,7.00
2022-10-26T15:05:24.082Z,7.90
2022-10-26T15:08:56.021Z,6.80
2022-10-26T15:11:43.158Z,6.40
2022-10-26T15:14:27.346Z,6.60
2022-10-26T15:17:20.850Z,6.80
2022-10-26T15:20:07.225Z,6.40
2022-10-26T15:22:53.741Z,5.30
2022-10-26T15:25:54.012Z,6.20
2022-10-26T15:28:36.713Z,5.60
2022-10-26T15:31:19.364Z,6.80
2022-10-26T15:34:02.110Z,6.50
2022-10-26T15:36:45.025Z,5.40
2022-10-26T15:39:27.907Z,5.70
2022-10-26T15:42:13.931Z,6.20
2022-10-26T15:44:56.945Z,5.60
2022-10-26T15:47:39.857Z,5.00
2022-10-26T15:50:31.634Z,6.70
2022-10-26T15:53:28.693Z,5.40
2022-10-26T15:56:16.881Z,5.50
2022-10-26T15:58:59.760Z,6.40
2022-10-26T16:01:42.705Z,6.90
2022-10-26T16:04:26.335Z,6.30
2022-10-26T16:07:13.888Z,5.80
2022-10-26T16:09:56.667Z,6.20
2022-10-26T16:12:39.453Z,7.30
2022-10-26T16:15:27.055Z,7.20
2022-10-26T16:18:09.743Z,7.20
2022-10-26T16:20:52.701Z,7.60
2022-10-26T16:23:35.474Z,7.40
2022-10-26T16:26:18.951Z,6.80
2022-10-26T16:29:02.775Z,6.80
2022-10-26T16:31:46.845Z,7.10
2022-10-26T16:34:29.519Z,6.50
2022-10-26T16:37:12.238Z,7.50
2022-10-26T16:39:55.012Z,8.30
2022-10-26T16:42:37.968Z,11.20
2022-10-26T16:45:20.784Z,13.90
2022-10-26T16:48:06.252Z,12.30
2022-10-26T16:50:50.099Z,14.10
2022-10-26T16:53:33.160Z,11.50
2022-10-26T16:56:19.422Z,13.60
2022-10-26T16:59:02.208Z,15.30
2022-10-26T17:01:45.233Z,17.40
2022-10-26T17:04:28.142Z,17.10
2022-10-26T17:07:11.680Z,16.50
2022-10-26T17:09:54.586Z,18.70
2022-10-26T17:12:37.520Z,20.70
2022-10-26T17:15:21.103Z,19.80
2022-10-26T17:18:04.763Z,18.10
2022-10-26T17:20:51.942Z,24.60
2022-10-26T17:23:34.890Z,24.90
2022-10-26T17:26:18.112Z,28.90
2022-10-26T17:29:02.768Z,27.60
2022-10-26T17:31:46.914Z,31.20
2022-10-26T17:34:32.305Z,31.40
2022-10-26T17:37:16.239Z,35.90
2022-10-26T17:40:00.059Z,40.80
2022-10-26T17:42:44.647Z,41.50
2022-10-26T17:45:28.340Z,42.10
2022-10-26T17:48:11.968Z,39.10
2022-10-26T17:50:58.460Z,39.50
2022-10-26T17:53:42.157Z,41.60
2022-10-26T17:56:31.193Z,47.40
2022-10-26T17:59:14.909Z,48.90
2022-10-26T18:01:58.607Z,50.60
2022-10-26T18:04:42.278Z,58.10
2022-10-26T18:07:25.782Z,60.70
2022-10-26T18:10:32.736Z,63.20
2022-10-26T18:13:13.623Z,60.70
2022-10-26T18:16:04.423Z,59.60
2022-10-26T18:18:52.403Z,68.20
2022-10-26T18:21:37.836Z,74.00
2022-10-26T18:24:21.157Z,73.60
2022-10-26T18:27:04.664Z,74.20
2022-10-26T18:29:49.524Z,73.90
2022-10-26T18:32:33.043Z,70.20
2022-10-26T18:35:18.832Z,68.50
2022-10-26T18:38:02.670Z,73.80
2022-10-26T18:40:53.176Z,72.50
2022-10-26T18:43:40.740Z,71.20
2022-10-26T18:46:33.954Z,84.40
2022-10-26T18:49:20.601Z,80.20
2022-10-26T18:52:04.798Z,81.90
2022-10-26T18:54:48.655Z,95.50
2022-10-26T18:57:32.846Z,99.90
2022-10-26T19:00:16.791Z,113.40
2022-10-26T19:03:00.120Z,111.70
2022-10-26T19:05:43.170Z,111.20
2022-10-26T19:08:27.924Z,105.40
2022-10-26T19:11:14.195Z,102.90
2022-10-26T19:13:57.719Z,105.40
2022-10-26T19:16:46.826Z,99.60
2022-10-26T19:19:31.816Z,94.00
2022-10-26T19:24:57.373Z,84.90
2022-10-26T19:27:40.402Z,88.60
2022-10-26T19:30:23.184Z,86.50
2022-10-26T19:33:05.973Z,91.80
2022-10-26T19:35:48.706Z,88.10
2022-10-26T19:41:15.669Z,87.10
2022-10-26T19:46:43.487Z,92.80
2022-10-26T19:49:26.658Z,89.30
2022-10-26T19:52:09.408Z,90.00
2022-10-26T19:54:52.145Z,87.50
2022-10-26T19:57:34.843Z,88.10
2022-10-26T20:03:00.311Z,82.20
2022-10-26T20:05:43.863Z,81.20
2022-10-26T20:08:27.165Z,81.30
2022-10-26T20:11:14.711Z,79.40
2022-10-26T20:13:58.654Z,86.10
2022-10-26T20:22:07.061Z,79.30
2022-10-26T20:27:32.480Z,82.00
2022-10-26T20:30:15.147Z,76.30
2022-10-26T20:35:43.678Z,74.80
2022-10-26T20:38:27.212Z,74.90
2022-10-26T20:41:12.313Z,73.50
2022-10-26T20:43:58.005Z,70.00
2022-10-26T20:46:41.788Z,70.60
2022-10-26T20:49:25.112Z,69.80
2022-10-26T20:52:22.056Z,67.50
2022-10-26T20:55:21.437Z,67.70
2022-10-26T20:58:15.848Z,60.90
2022-10-26T21:01:02.640Z,64.60
2022-10-26T21:03:46.537Z,61.60
2022-10-26T21:06:30.294Z,59.90
2022-10-26T21:09:13.137Z,61.70
2022-10-26T21:11:57.821Z,61.00
2022-10-26T21:14:41.138Z,61.20
2022-10-26T21:17:23.998Z,58.30
2022-10-26T21:22:52.690Z,59.10
2022-10-26T21:25:37.064Z,55.50
2022-10-26T21:28:19.868Z,57.60
2022-10-26T21:31:07.871Z,54.80
2022-10-26T21:33:50.572Z,55.30
2022-10-26T21:39:15.880Z,49.30
2022-10-26T21:44:41.915Z,50.30
2022-10-26T21:47:25.852Z,51.90
2022-10-26T21:50:08.901Z,51.80
2022-10-26T21:52:53.713Z,48.40
2022-10-26T21:55:36.470Z,48.50
2022-10-26T22:01:22.206Z,47.40
2022-10-26T22:04:05.199Z,45.00
2022-10-26T22:06:47.977Z,45.00
2022-10-26T22:09:37.287Z,46.70
2022-10-26T22:12:27.730Z,51.50
2022-10-26T22:17:53.454Z,49.70
2022-10-26T22:20:36.272Z,54.20
2022-10-26T22:26:04.555Z,54.20
2022-10-26T22:28:49.747Z,61.10
2022-10-26T22:31:34.909Z,61.80
2022-10-26T22:34:17.774Z,62.90
2022-10-26T22:37:00.440Z,60.40
2022-10-26T22:42:25.742Z,56.60
2022-10-26T22:47:51.637Z,57.10
2022-10-26T22:50:34.370Z,58.60
2022-10-26T22:56:00.308Z,56.60
2022-10-26T22:58:43.117Z,55.80
2022-10-26T23:01:31.435Z,62.40
2022-10-26T23:04:14.497Z,56.30
2022-10-26T23:06:57.358Z,58.80
2022-10-26T23:09:40.079Z,58.10
2022-10-26T23:15:06.338Z,53.30
2022-10-26T23:17:49.278Z,54.30
2022-10-26T23:20:36.539Z,53.00
2022-10-26T23:23:19.204Z,50.20
2022-10-26T23:28:46.095Z,47.90
2022-10-26T23:31:28.945Z,46.40
2022-10-26T23:34:11.741Z,43.60
2022-10-26T23:36:54.568Z,46.40
2022-10-26T23:39:37.265Z,41.90
2022-10-26T23:45:07.183Z,41.60
2022-10-26T23:47:50.343Z,43.60
2022-10-26T23:50:33.644Z,40.60
2022-10-26T23:56:00.788Z,39.00
2022-10-26T23:58:43.466Z,38.90
